Time;durP1;ratioP1;P1;durP2;ratioP2;P2;SDS_P1;SDS_P2;PMS_P1;PMS_P2;Temp;Humidity;BMP_temperature;BMP_pressure;BME280_temperature;BME280_humidity;BME280_pressure;Samples;Min_cycle;Max_cycle;Signal;HPM_P1;HPM_P2
2021/12/28 00:00:45;;;;;;;70.50;36.83;;;0.30;99.90;;;;;;2089509;28;20029;-69
2021/12/28 00:01:45;;;;;;;70.20;38.47;;;0.30;99.90;;;;;;2097597;28;20074;-69
2021/12/28 00:02:47;;;;;;;63.97;35.97;;;0.30;99.90;;;;;;2098068;28;20501;-69
2021/12/28 00:03:48;;;;;;;73.95;38.75;;;0.30;99.90;;;;;;2089663;28;20025;-67
2021/12/28 00:04:49;;;;;;;70.78;37.60;;;0.30;99.90;;;;;;2098049;28;20024;-69
2021/12/28 00:05:50;;;;;;;73.05;38.45;;;0.30;99.90;;;;;;2107084;28;20077;-69
2021/12/28 00:06:50;;;;;;;68.55;36.15;;;0.30;99.90;;;;;;2089928;28;20576;-67
2021/12/28 00:07:51;;;;;;;72.32;37.60;;;0.30;99.90;;;;;;2080977;28;20077;-67
2021/12/28 00:08:52;;;;;;;68.30;37.03;;;0.30;99.90;;;;;;2097965;28;20103;-69
2021/12/28 00:09:52;;;;;;;70.93;38.95;;;0.30;99.90;;;;;;2107125;28;20504;-68
2021/12/28 00:10:55;;;;;;;69.20;37.58;;;0.30;99.90;;;;;;2098259;28;20020;-68
2021/12/28 00:11:56;;;;;;;70.45;37.25;;;0.30;99.90;;;;;;2099071;28;20094;-68
2021/12/28 00:12:56;;;;;;;71.30;38.20;;;0.20;99.90;;;;;;2108110;28;20529;-68
2021/12/28 00:14:01;;;;;;;74.82;38.28;;;0.20;99.90;;;;;;2107772;28;20099;-68
2021/12/28 00:15:18;;;;;;;72.25;39.08;;;0.20;99.90;;;;;;2107671;28;20023;-68
2021/12/28 00:16:30;;;;;;;69.95;37.28;;;0.30;99.90;;;;;;2099073;28;20108;-69
2021/12/28 00:18:49;;;;;;;72.22;37.78;;;0.20;99.90;;;;;;2107936;28;20028;-68
2021/12/28 00:19:50;;;;;;;76.07;38.70;;;0.30;99.90;;;;;;2098365;28;20028;-68
2021/12/28 00:20:53;;;;;;;71.32;38.65;;;0.30;99.90;;;;;;2098908;28;20526;-69
2021/12/28 00:21:54;;;;;;;73.85;38.65;;;0.30;99.90;;;;;;2098586;28;20029;-69
2021/12/28 00:22:55;;;;;;;72.97;38.75;;;0.40;99.90;;;;;;2098640;28;20048;-68
2021/12/28 00:23:57;;;;;;;73.18;39.13;;;0.30;99.90;;;;;;2107903;28;20020;-69
2021/12/28 00:25:05;;;;;;;73.82;38.45;;;0.30;99.90;;;;;;2108341;28;20451;-68
2021/12/28 00:26:12;;;;;;;74.63;39.20;;;0.30;99.90;;;;;;2108584;28;20103;-68
2021/12/28 00:27:13;;;;;;;75.30;38.88;;;0.30;99.90;;;;;;2097956;28;20035;-69
2021/12/28 00:28:14;;;;;;;78.70;40.08;;;0.30;99.90;;;;;;2089503;28;20039;-68
2021/12/28 00:29:14;;;;;;;74.70;39.75;;;0.30;99.90;;;;;;2089443;28;20451;-69
2021/12/28 00:30:16;;;;;;;74.93;39.55;;;0.30;99.90;;;;;;2089457;28;20043;-68
2021/12/28 00:31:17;;;;;;;74.95;39.50;;;0.30;99.90;;;;;;2106626;28;20036;-68
2021/12/28 00:32:18;;;;;;;72.93;39.03;;;0.30;99.90;;;;;;2088941;28;20064;-68
2021/12/28 00:33:20;;;;;;;73.57;39.30;;;0.30;99.90;;;;;;2089221;28;20383;-68
2021/12/28 00:34:21;;;;;;;74.90;38.67;;;0.30;99.90;;;;;;2106430;28;20032;-68
2021/12/28 00:35:31;;;;;;;74.28;39.40;;;0.30;99.90;;;;;;2106518;28;20024;-67
2021/12/28 00:36:32;;;;;;;69.50;38.38;;;0.40;99.90;;;;;;2106485;28;20028;-67
2021/12/28 00:37:32;;;;;;;71.07;37.97;;;0.30;99.90;;;;;;2088326;28;20376;-67
2021/12/28 00:38:33;;;;;;;73.82;38.90;;;0.40;99.90;;;;;;2088918;28;20118;-68
2021/12/28 00:39:34;;;;;;;71.45;38.03;;;0.30;99.90;;;;;;2097308;28;20075;-68
2021/12/28 00:40:35;;;;;;;74.88;40.25;;;0.30;99.90;;;;;;2106172;28;20371;-68
2021/12/28 00:41:35;;;;;;;74.88;39.53;;;0.30;99.90;;;;;;2105932;28;20373;-69
2021/12/28 00:42:36;;;;;;;113.93;63.53;;;0.40;99.90;;;;;;2108201;28;20065;-69
2021/12/28 00:43:38;;;;;;;76.63;41.35;;;0.40;99.90;;;;;;2106334;28;20180;-68
2021/12/28 00:44:39;;;;;;;79.72;42.63;;;0.40;99.90;;;;;;2106293;28;20042;-68
2021/12/28 00:45:39;;;;;;;83.30;43.13;;;0.40;99.90;;;;;;2106110;28;20035;-68
2021/12/28 00:46:40;;;;;;;81.70;43.17;;;0.40;99.90;;;;;;2106308;28;20040;-69
2021/12/28 00:47:41;;;;;;;76.78;41.08;;;0.40;99.90;;;;;;2096692;28;20028;-68
2021/12/28 00:48:42;;;;;;;76.55;39.25;;;0.40;99.90;;;;;;2088950;28;20104;-68
2021/12/28 00:49:42;;;;;;;76.57;40.83;;;0.40;99.90;;;;;;2097289;28;20094;-69
2021/12/28 00:50:44;;;;;;;79.82;39.75;;;0.50;99.90;;;;;;2105963;28;20113;-69
2021/12/28 00:51:44;;;;;;;74.82;39.83;;;0.50;99.90;;;;;;2096952;28;20036;-68
2021/12/28 00:52:46;;;;;;;78.35;40.88;;;0.50;99.90;;;;;;2088765;28;20029;-69
2021/12/28 00:53:47;;;;;;;76.15;40.63;;;0.50;99.90;;;;;;2089078;28;20116;-69
2021/12/28 00:54:47;;;;;;;75.43;40.17;;;0.50;99.90;;;;;;2097332;28;20032;-69
2021/12/28 00:55:48;;;;;;;75.85;40.28;;;0.50;99.90;;;;;;2106205;28;20032;-68
2021/12/28 00:56:49;;;;;;;76.00;40.38;;;0.50;99.90;;;;;;2106203;28;20059;-68
2021/12/28 00:57:51;;;;;;;76.10;40.20;;;0.50;99.90;;;;;;2105650;28;20123;-67
2021/12/28 00:58:51;;;;;;;74.32;39.85;;;0.50;99.90;;;;;;2096712;28;20032;-68
2021/12/28 00:59:52;;;;;;;76.63;40.53;;;0.60;99.90;;;;;;2097143;28;20029;-69
2021/12/28 01:00:53;;;;;;;75.15;39.10;;;0.60;99.90;;;;;;2097322;28;20166;-69
2021/12/28 01:01:54;;;;;;;68.10;37.72;;;0.60;99.90;;;;;;2105800;28;20533;-68
2021/12/28 01:02:56;;;;;;;72.80;39.63;;;0.60;99.90;;;;;;2106156;28;20022;-68
2021/12/28 01:03:56;;;;;;;74.90;39.10;;;0.60;99.90;;;;;;2106106;28;20024;-69
2021/12/28 01:04:57;;;;;;;70.07;38.30;;;0.60;99.90;;;;;;2106014;28;20040;-68
2021/12/28 01:05:58;;;;;;;73.72;39.83;;;0.60;99.90;;;;;;2106083;28;20058;-69
2021/12/28 01:06:58;;;;;;;74.07;39.45;;;0.60;99.90;;;;;;2096935;28;20033;-68
2021/12/28 01:07:59;;;;;;;75.07;39.40;;;0.60;99.90;;;;;;2096584;28;20673;-68
2021/12/28 01:09:00;;;;;;;72.32;38.80;;;0.60;99.90;;;;;;2105982;28;20032;-68
2021/12/28 01:10:03;;;;;;;71.95;39.63;;;0.70;99.90;;;;;;2106067;28;20109;-69
2021/12/28 01:11:03;;;;;;;74.78;39.38;;;0.70;99.90;;;;;;2106020;28;20039;-68
2021/12/28 01:12:05;;;;;;;72.45;38.45;;;0.70;99.90;;;;;;2105534;28;20028;-68
2021/12/28 01:13:06;;;;;;;75.45;39.20;;;0.70;99.90;;;;;;2105971;28;20395;-68
2021/12/28 01:14:07;;;;;;;76.65;39.33;;;0.70;99.90;;;;;;2106054;28;20090;-68
2021/12/28 01:15:09;;;;;;;74.75;39.95;;;0.70;99.90;;;;;;2097063;28;20163;-68
2021/12/28 01:16:13;;;;;;;73.82;39.65;;;0.70;99.90;;;;;;2097163;28;20039;-68
2021/12/28 01:17:14;;;;;;;67.65;37.70;;;0.70;99.90;;;;;;2105647;28;20035;-68
2021/12/28 01:18:15;;;;;;;73.93;38.60;;;0.80;99.90;;;;;;2106003;28;20047;-68
2021/12/28 01:19:16;;;;;;;73.88;39.40;;;0.80;99.90;;;;;;2106197;28;20035;-69
2021/12/28 01:20:17;;;;;;;69.38;38.53;;;0.80;99.90;;;;;;2106181;28;20024;-68
2021/12/28 01:21:18;;;;;;;71.65;38.22;;;0.80;99.90;;;;;;2106116;28;20024;-67
2021/12/28 01:22:19;;;;;;;74.05;39.47;;;0.90;99.90;;;;;;2105895;28;20043;-68
2021/12/28 01:23:19;;;;;;;70.55;38.65;;;0.90;99.90;;;;;;2088852;28;20059;-68
2021/12/28 01:24:21;;;;;;;72.35;39.25;;;0.90;99.90;;;;;;2088771;28;20237;-67
2021/12/28 01:25:22;;;;;;;72.72;38.67;;;0.90;99.90;;;;;;2088808;28;20033;-67
2021/12/28 01:26:22;;;;;;;68.65;37.72;;;0.90;99.90;;;;;;2088909;28;20021;-67
2021/12/28 01:27:23;;;;;;;66.50;37.42;;;1.00;99.90;;;;;;2080164;28;20036;-67
2021/12/28 01:28:23;;;;;;;66.45;36.90;;;1.00;99.90;;;;;;2088746;28;20021;-69
2021/12/28 01:29:24;;;;;;;67.68;38.03;;;1.00;99.90;;;;;;2088867;28;20473;-67
2021/12/28 01:30:28;;;;;;;71.55;37.80;;;1.00;99.90;;;;;;2088794;28;20025;-66
2021/12/28 01:31:28;;;;;;;69.18;36.65;;;1.00;99.90;;;;;;2088958;28;20063;-68
2021/12/28 01:32:29;;;;;;;71.32;37.42;;;1.10;99.90;;;;;;2096890;28;20391;-67
2021/12/28 01:33:30;;;;;;;73.13;37.85;;;1.10;99.90;;;;;;2097220;28;20033;-67
2021/12/28 01:34:30;;;;;;;71.03;36.97;;;1.10;99.90;;;;;;2088792;28;20044;-67
2021/12/28 01:35:32;;;;;;;71.82;38.15;;;1.10;99.90;;;;;;2097017;28;20551;-67
2021/12/28 01:36:33;;;;;;;69.47;37.60;;;1.10;99.90;;;;;;2106034;28;20036;-68
2021/12/28 01:37:34;;;;;;;67.53;36.78;;;1.10;99.90;;;;;;2105202;28;20122;-68
2021/12/28 01:38:35;;;;;;;66.78;37.10;;;1.10;99.90;;;;;;2106105;28;20089;-68
2021/12/28 01:39:35;;;;;;;67.07;37.67;;;1.10;99.90;;;;;;2096981;28;20487;-68
2021/12/28 01:40:40;;;;;;;69.13;37.58;;;1.10;99.90;;;;;;2088748;28;20709;-68
2021/12/28 01:41:41;;;;;;;66.68;36.70;;;1.10;99.90;;;;;;2097559;28;20953;-68
2021/12/28 01:43:02;;;;;;;69.68;38.58;;;1.10;99.90;;;;;;2106130;28;20043;-68
2021/12/28 01:44:09;;;;;;;69.25;35.90;;;1.10;99.90;;;;;;2105648;28;20067;-68
2021/12/28 01:45:10;;;;;;;69.28;37.08;;;1.10;99.90;;;;;;2106058;28;20028;-69
2021/12/28 01:46:10;;;;;;;67.07;36.63;;;1.10;99.90;;;;;;2105914;28;20024;-68
2021/12/28 01:47:13;;;;;;;73.38;38.17;;;1.20;99.90;;;;;;2105576;28;20034;-68
2021/12/28 01:48:18;;;;;;;68.10;37.10;;;1.20;99.90;;;;;;2096680;28;20024;-68
2021/12/28 01:49:19;;;;;;;66.53;36.72;;;1.20;99.90;;;;;;2097743;28;20032;-68
2021/12/28 01:50:20;;;;;;;69.03;37.83;;;1.20;99.90;;;;;;2105956;28;20039;-68
2021/12/28 01:51:22;;;;;;;68.07;37.40;;;1.20;99.90;;;;;;2105891;28;20240;-67
2021/12/28 01:52:23;;;;;;;70.70;37.70;;;1.20;99.90;;;;;;2088176;28;20492;-67
2021/12/28 01:53:24;;;;;;;68.15;37.17;;;1.20;99.90;;;;;;2088708;28;20031;-67
2021/12/28 01:54:25;;;;;;;71.75;38.20;;;1.20;99.90;;;;;;2088465;28;20452;-69
2021/12/28 01:55:26;;;;;;;69.13;37.88;;;1.30;99.90;;;;;;2096969;28;20039;-68
2021/12/28 01:56:30;;;;;;;68.97;37.47;;;1.20;99.90;;;;;;2105861;28;20032;-67
2021/12/28 01:57:31;;;;;;;71.88;38.47;;;1.20;99.90;;;;;;2104956;28;20035;-67
2021/12/28 01:58:31;;;;;;;70.30;37.63;;;1.30;99.90;;;;;;2105636;28;20411;-67
2021/12/28 01:59:32;;;;;;;66.30;35.85;;;1.30;99.90;;;;;;2096429;28;20506;-67
2021/12/28 02:00:34;;;;;;;67.35;36.33;;;1.30;99.90;;;;;;2096566;28;20365;-68
2021/12/28 02:01:35;;;;;;;66.72;37.40;;;1.30;99.90;;;;;;2105285;28;20433;-67
2021/12/28 02:02:35;;;;;;;67.38;36.97;;;1.30;99.90;;;;;;2105574;28;20043;-68
2021/12/28 02:03:38;;;;;;;64.68;36.38;;;1.30;99.90;;;;;;2096563;28;20107;-67
2021/12/28 02:04:39;;;;;;;67.47;36.83;;;1.30;99.90;;;;;;2088507;28;20055;-68
2021/12/28 02:05:40;;;;;;;68.38;38.22;;;1.30;99.90;;;;;;2088388;28;20036;-69
2021/12/28 02:06:41;;;;;;;72.35;38.38;;;1.30;99.90;;;;;;2096636;28;20027;-68
2021/12/28 02:07:42;;;;;;;69.55;38.03;;;1.30;99.90;;;;;;2104945;28;20016;-68
2021/12/28 02:08:43;;;;;;;66.55;37.05;;;1.30;99.90;;;;;;2095765;28;20035;-67
2021/12/28 02:09:44;;;;;;;69.63;37.15;;;1.30;99.90;;;;;;2096576;28;20036;-69
2021/12/28 02:10:46;;;;;;;72.22;37.90;;;1.30;99.90;;;;;;2105513;28;20111;-68
2021/12/28 02:11:47;;;;;;;67.60;35.80;;;1.30;99.90;;;;;;2105203;28;20394;-68
2021/12/28 02:12:47;;;;;;;68.05;38.20;;;1.30;99.90;;;;;;2096424;28;20036;-68
2021/12/28 02:13:49;;;;;;;68.13;38.00;;;1.40;99.90;;;;;;2096454;28;20063;-69
2021/12/28 02:14:50;;;;;;;70.30;37.67;;;1.40;99.90;;;;;;2105516;28;20655;-68
2021/12/28 02:15:51;;;;;;;70.90;39.33;;;1.40;99.90;;;;;;2105554;28;20048;-68
2021/12/28 02:16:51;;;;;;;69.22;38.55;;;1.40;99.90;;;;;;2096445;28;20583;-68
2021/12/28 02:17:52;;;;;;;70.07;38.20;;;1.40;99.90;;;;;;2096165;28;20044;-68
2021/12/28 02:18:52;;;;;;;69.97;38.53;;;1.40;99.90;;;;;;2105515;28;20024;-68
2021/12/28 02:19:53;;;;;;;67.90;37.70;;;1.30;99.90;;;;;;2105386;28;20027;-69
2021/12/28 02:20:55;;;;;;;71.32;38.28;;;1.40;99.90;;;;;;2105256;28;20053;-68
2021/12/28 02:21:56;;;;;;;73.38;38.53;;;1.40;99.90;;;;;;2096211;28;20411;-68
2021/12/28 02:22:56;;;;;;;71.05;38.42;;;1.40;99.90;;;;;;2080283;28;20030;-68
2021/12/28 02:23:59;;;;;;;71.20;38.38;;;1.40;99.90;;;;;;2079947;28;20096;-68
2021/12/28 02:25:00;;;;;;;69.47;38.72;;;1.40;99.90;;;;;;2088794;28;20051;-67
2021/12/28 02:26:01;;;;;;;73.38;39.13;;;1.40;99.90;;;;;;2097706;28;20482;-67
2021/12/28 02:27:01;;;;;;;72.45;38.95;;;1.40;99.90;;;;;;2097463;28;20033;-68
2021/12/28 02:28:07;;;;;;;72.07;40.08;;;1.40;99.90;;;;;;2106242;28;20061;-69
2021/12/28 02:29:08;;;;;;;69.22;38.33;;;1.40;99.90;;;;;;2106456;28;20043;-69
2021/12/28 02:30:13;;;;;;;72.72;39.10;;;1.40;99.90;;;;;;2105529;28;20764;-69
2021/12/28 02:31:14;;;;;;;70.75;37.95;;;1.40;99.90;;;;;;2105459;28;20028;-69
2021/12/28 02:32:15;;;;;;;71.07;38.58;;;1.40;99.90;;;;;;2096668;28;20035;-69
2021/12/28 02:33:17;;;;;;;71.30;38.65;;;1.40;99.90;;;;;;2096741;28;20059;-68
2021/12/28 02:34:20;;;;;;;72.43;38.38;;;1.40;99.90;;;;;;2096154;28;20489;-67
2021/12/28 02:35:24;;;;;;;73.25;39.05;;;1.40;99.90;;;;;;2096801;28;20036;-68
2021/12/28 02:36:26;;;;;;;71.70;39.13;;;1.40;99.90;;;;;;2096422;28;20036;-68
2021/12/28 02:37:27;;;;;;;73.97;39.00;;;1.40;99.90;;;;;;2088365;28;20396;-69
2021/12/28 02:38:29;;;;;;;72.40;40.15;;;1.40;99.90;;;;;;2088243;28;20120;-68
2021/12/28 02:39:29;;;;;;;74.03;39.22;;;1.40;99.90;;;;;;2096484;28;20036;-68
2021/12/28 02:40:35;;;;;;;70.65;38.83;;;1.40;99.90;;;;;;2096450;28;20063;-69
2021/12/28 02:41:35;;;;;;;68.03;38.45;;;1.30;99.90;;;;;;2096952;28;20028;-69
2021/12/28 02:42:36;;;;;;;69.38;38.47;;;1.40;99.90;;;;;;2097001;28;20017;-67
2021/12/28 02:43:38;;;;;;;67.25;38.08;;;1.40;99.90;;;;;;2096859;28;20025;-68
2021/12/28 02:44:39;;;;;;;70.65;38.47;;;1.40;99.90;;;;;;2096371;28;20020;-67
2021/12/28 02:45:50;;;;;;;69.28;37.85;;;1.40;99.90;;;;;;2096424;28;20767;-68
2021/12/28 02:46:50;;;;;;;73.43;39.08;;;1.40;99.90;;;;;;2105388;28;20080;-67
2021/12/28 02:47:52;;;;;;;70.47;38.38;;;1.40;99.90;;;;;;2095467;28;20028;-68
2021/12/28 02:48:52;;;;;;;73.32;39.95;;;1.40;99.90;;;;;;2096275;28;20024;-68
2021/12/28 02:49:53;;;;;;;72.13;38.55;;;1.40;99.90;;;;;;2088017;28;20048;-69
2021/12/28 02:51:00;;;;;;;73.13;40.13;;;1.40;99.90;;;;;;2096381;28;20052;-68
2021/12/28 02:52:01;;;;;;;76.10;40.13;;;1.40;99.90;;;;;;2098652;28;20450;-68
2021/12/28 02:53:02;;;;;;;71.72;39.70;;;1.40;99.90;;;;;;2098133;28;20492;-70
2021/12/28 02:54:03;;;;;;;71.47;39.33;;;1.40;99.90;;;;;;2105992;28;20059;-70
2021/12/28 02:55:09;;;;;;;74.70;40.40;;;1.40;99.90;;;;;;2105842;28;20036;-69
2021/12/28 02:56:11;;;;;;;74.35;40.17;;;1.40;99.90;;;;;;2096393;28;20136;-70
2021/12/28 02:57:11;;;;;;;73.57;39.28;;;1.40;99.90;;;;;;2096022;28;20058;-69
2021/12/28 02:58:23;;;;;;;76.78;41.30;;;1.40;99.90;;;;;;2096405;28;20040;-69
2021/12/28 02:59:24;;;;;;;74.80;40.03;;;1.40;99.90;;;;;;2089684;28;20056;-69
2021/12/28 03:00:44;;;;;;;74.35;39.50;;;1.40;99.90;;;;;;2096967;28;20028;-69
2021/12/28 03:01:45;;;;;;;75.32;39.28;;;1.40;99.90;;;;;;2106076;28;20030;-69
2021/12/28 03:02:45;;;;;;;73.72;39.47;;;1.40;99.90;;;;;;2106571;28;20035;-68
2021/12/28 03:03:49;;;;;;;76.07;40.63;;;1.50;99.90;;;;;;2097677;28;20480;-68
2021/12/28 03:04:50;;;;;;;72.82;40.00;;;1.40;99.90;;;;;;2096803;28;20012;-68
2021/12/28 03:05:54;;;;;;;75.63;40.20;;;1.40;99.90;;;;;;2096761;28;20036;-68
2021/12/28 03:06:55;;;;;;;79.25;41.90;;;1.40;99.90;;;;;;2096992;28;20020;-69
2021/12/28 03:07:55;;;;;;;80.68;41.35;;;1.40;99.90;;;;;;2104708;28;20020;-68
2021/12/28 03:08:58;;;;;;;74.43;40.40;;;1.40;99.90;;;;;;2096261;28;20812;-69
2021/12/28 03:09:59;;;;;;;78.05;41.10;;;1.40;99.90;;;;;;2096770;28;20041;-69
2021/12/28 03:11:01;;;;;;;80.25;41.97;;;1.40;99.90;;;;;;2105243;28;20032;-68
2021/12/28 03:12:03;;;;;;;80.70;41.50;;;1.40;99.90;;;;;;2105089;28;20667;-68
2021/12/28 03:13:06;;;;;;;77.53;40.95;;;1.40;99.90;;;;;;2105113;28;20655;-69
2021/12/28 03:14:06;;;;;;;78.70;41.10;;;1.40;99.90;;;;;;2105316;28;20188;-68
2021/12/28 03:15:07;;;;;;;81.40;41.03;;;1.40;99.90;;;;;;2105268;28;20149;-69
2021/12/28 03:16:09;;;;;;;82.38;42.70;;;1.40;99.90;;;;;;2105278;28;20032;-69
2021/12/28 03:17:10;;;;;;;78.63;42.20;;;1.50;99.90;;;;;;2104793;28;20119;-68
2021/12/28 03:18:11;;;;;;;79.85;41.83;;;1.40;99.90;;;;;;2105294;28;20596;-69
2021/12/28 03:19:11;;;;;;;82.57;42.35;;;1.40;99.90;;;;;;2105159;28;20422;-68
2021/12/28 03:20:14;;;;;;;81.28;42.63;;;1.40;99.90;;;;;;2105327;28;20053;-69
2021/12/28 03:21:17;;;;;;;82.35;42.25;;;1.50;99.90;;;;;;2106269;28;20028;-69
2021/12/28 03:22:18;;;;;;;84.63;43.95;;;1.50;99.90;;;;;;2106677;28;20024;-69
2021/12/28 03:23:22;;;;;;;83.40;42.33;;;1.40;99.90;;;;;;2106900;28;20114;-69
2021/12/28 03:24:22;;;;;;;86.22;43.58;;;1.40;99.90;;;;;;2106855;28;20472;-69
2021/12/28 03:25:23;;;;;;;81.07;42.83;;;1.50;99.90;;;;;;2106995;28;20543;-69
2021/12/28 03:26:24;;;;;;;84.47;42.35;;;1.40;99.90;;;;;;2106764;28;20032;-69
2021/12/28 03:27:25;;;;;;;80.60;42.95;;;1.40;99.90;;;;;;2106143;28;20063;-69
2021/12/28 03:28:29;;;;;;;84.88;43.22;;;1.40;99.90;;;;;;2097806;28;20029;-69
2021/12/28 03:29:29;;;;;;;82.88;43.70;;;1.40;99.90;;;;;;2089906;28;20033;-70
2021/12/28 03:30:30;;;;;;;85.07;42.97;;;1.40;99.90;;;;;;2097970;28;20044;-70
2021/12/28 03:31:31;;;;;;;84.40;43.53;;;1.50;99.90;;;;;;2106566;28;20093;-70
2021/12/28 03:32:31;;;;;;;88.82;44.88;;;1.50;99.90;;;;;;2106719;28;20547;-69
2021/12/28 03:33:34;;;;;;;87.07;43.67;;;1.40;99.90;;;;;;2106754;28;20067;-68
2021/12/28 03:34:35;;;;;;;87.72;44.60;;;1.40;99.90;;;;;;2097605;28;20032;-69
2021/12/28 03:35:35;;;;;;;85.28;44.95;;;1.40;99.90;;;;;;2089491;28;20829;-70
2021/12/28 03:36:36;;;;;;;82.95;43.60;;;1.40;99.90;;;;;;2097713;28;20122;-70
2021/12/28 03:37:37;;;;;;;81.88;42.63;;;1.40;99.90;;;;;;2097098;28;20511;-69
2021/12/28 03:38:40;;;;;;;83.53;42.42;;;1.40;99.90;;;;;;2089390;28;20104;-69
2021/12/28 03:39:40;;;;;;;87.63;44.13;;;1.40;99.90;;;;;;2089474;28;20080;-70
2021/12/28 03:40:41;;;;;;;91.13;45.60;;;1.40;99.90;;;;;;2097563;28;20032;-69
2021/12/28 03:41:42;;;;;;;88.88;44.85;;;1.40;99.90;;;;;;2106283;28;20024;-70
2021/12/28 03:42:43;;;;;;;85.93;44.63;;;1.40;99.90;;;;;;2106695;28;20028;-69
2021/12/28 03:43:47;;;;;;;95.13;46.30;;;1.40;99.90;;;;;;2097659;28;20031;-69
2021/12/28 03:44:48;;;;;;;86.68;44.70;;;1.40;99.90;;;;;;2098191;28;20116;-69
2021/12/28 03:45:50;;;;;;;92.55;45.88;;;1.40;99.90;;;;;;2106633;28;20024;-69
2021/12/28 03:46:50;;;;;;;91.32;47.10;;;1.40;99.90;;;;;;2097699;28;20063;-69
2021/12/28 03:47:51;;;;;;;86.90;44.75;;;1.40;99.90;;;;;;2088800;28;20044;-69
2021/12/28 03:48:52;;;;;;;87.15;44.65;;;1.40;99.90;;;;;;2097877;28;20052;-70
2021/12/28 03:49:53;;;;;;;87.63;45.55;;;1.40;99.90;;;;;;2106530;28;20091;-69
2021/12/28 03:50:53;;;;;;;89.63;45.85;;;1.40;99.90;;;;;;2106714;28;20475;-69
2021/12/28 03:51:55;;;;;;;91.28;46.17;;;1.40;99.90;;;;;;2097477;28;20028;-71
2021/12/28 03:52:56;;;;;;;91.47;46.28;;;1.40;99.90;;;;;;2097573;28;20066;-69
2021/12/28 03:53:57;;;;;;;92.38;47.75;;;1.40;99.90;;;;;;2106622;28;20522;-70
2021/12/28 03:54:58;;;;;;;89.00;45.97;;;1.40;99.90;;;;;;2106612;28;20032;-69
2021/12/28 03:55:59;;;;;;;90.55;46.08;;;1.40;99.90;;;;;;2106585;28;20043;-69
2021/12/28 03:57:01;;;;;;;94.53;47.45;;;1.30;99.90;;;;;;2106543;28;20062;-67
2021/12/28 03:58:04;;;;;;;94.03;48.30;;;1.40;99.90;;;;;;2106154;28;20027;-67
2021/12/28 03:59:05;;;;;;;92.60;47.50;;;1.30;99.90;;;;;;2106400;28;20439;-67
2021/12/28 04:00:08;;;;;;;86.95;45.03;;;1.30;99.90;;;;;;2106604;28;20028;-70
2021/12/28 04:01:11;;;;;;;94.47;48.35;;;1.30;99.90;;;;;;2097556;28;20039;-68
2021/12/28 04:02:12;;;;;;;96.53;47.75;;;1.30;99.90;;;;;;2097659;28;20084;-68
2021/12/28 04:03:13;;;;;;;98.88;47.17;;;1.30;99.90;;;;;;2106513;28;20056;-68
2021/12/28 04:04:14;;;;;;;89.75;46.08;;;1.30;99.90;;;;;;2106436;28;20034;-68
2021/12/28 04:05:16;;;;;;;90.03;46.53;;;1.30;99.90;;;;;;2097568;28;20415;-71
2021/12/28 04:06:19;;;;;;;92.43;46.67;;;1.30;99.90;;;;;;2089469;28;20028;-68
2021/12/28 04:07:21;;;;;;;92.18;47.30;;;1.30;99.90;;;;;;2088949;28;20037;-67
2021/12/28 04:08:23;;;;;;;93.10;46.90;;;1.30;99.90;;;;;;2097663;28;20068;-68
2021/12/28 04:09:46;;;;;;;93.65;48.05;;;1.30;99.90;;;;;;2106542;28;20028;-67
2021/12/28 04:10:54;;;;;;;;;;;1.30;99.90;;;;;;2106906;28;20067;-67
2021/12/28 04:11:54;;;;;;;96.25;45.70;;;1.30;99.90;;;;;;2097359;28;19908;-67
2021/12/28 04:12:55;;;;;;;94.70;46.17;;;1.30;99.90;;;;;;2081139;28;20029;-68
2021/12/28 04:14:02;;;;;;;97.50;47.97;;;1.30;99.90;;;;;;2089468;28;20033;-68
2021/12/28 04:15:05;;;;;;;94.43;48.20;;;1.30;99.90;;;;;;2097589;28;20091;-67
2021/12/28 04:16:09;;;;;;;91.70;47.20;;;1.20;99.90;;;;;;2089374;28;20044;-67
2021/12/28 04:17:10;;;;;;;92.45;47.55;;;1.20;99.90;;;;;;2096845;28;20027;-67
2021/12/28 04:18:11;;;;;;;93.43;46.50;;;1.30;99.90;;;;;;2089225;28;20043;-67
2021/12/28 04:19:11;;;;;;;96.25;47.80;;;1.20;99.90;;;;;;2097390;28;20127;-67
2021/12/28 04:20:16;;;;;;;94.72;47.72;;;1.20;99.90;;;;;;2106401;28;20024;-67
2021/12/28 04:21:16;;;;;;;96.93;48.15;;;1.20;99.90;;;;;;2106305;28;20360;-68
2021/12/28 04:22:17;;;;;;;95.68;47.95;;;1.20;99.90;;;;;;2106061;28;20560;-68
2021/12/28 04:23:18;;;;;;;92.68;47.08;;;1.20;99.90;;;;;;2106472;28;20526;-68
2021/12/28 04:24:19;;;;;;;90.30;46.97;;;1.20;99.90;;;;;;2106452;28;20077;-68
2021/12/28 04:25:20;;;;;;;92.97;47.40;;;1.20;99.90;;;;;;2097352;28;20563;-68
2021/12/28 04:26:21;;;;;;;92.75;48.22;;;1.20;99.90;;;;;;2097521;28;20472;-67
2021/12/28 04:27:22;;;;;;;93.82;47.28;;;1.20;99.90;;;;;;2105687;28;20028;-69
2021/12/28 04:28:22;;;;;;;91.57;46.42;;;1.20;99.90;;;;;;2106444;28;20055;-68
2021/12/28 04:29:24;;;;;;;89.57;46.20;;;1.20;99.90;;;;;;2097404;28;20028;-68
2021/12/28 04:30:24;;;;;;;90.70;46.47;;;1.20;99.90;;;;;;2097434;28;20763;-69
2021/12/28 04:31:25;;;;;;;93.65;47.38;;;1.30;99.90;;;;;;2105797;28;20080;-69
2021/12/28 04:32:26;;;;;;;90.05;47.60;;;1.30;99.90;;;;;;2106003;28;20036;-69
2021/12/28 04:33:27;;;;;;;90.45;46.90;;;1.30;99.90;;;;;;2106295;28;20043;-68
2021/12/28 04:34:28;;;;;;;91.90;47.35;;;1.20;99.90;;;;;;2106433;28;20103;-69
2021/12/28 04:35:29;;;;;;;95.15;48.28;;;1.20;99.90;;;;;;2097351;28;20119;-69
2021/12/28 04:36:30;;;;;;;96.72;47.72;;;1.20;99.90;;;;;;2097318;28;20037;-68
2021/12/28 04:37:31;;;;;;;96.45;48.33;;;1.20;99.90;;;;;;2096893;28;20047;-68
2021/12/28 04:38:32;;;;;;;92.07;46.55;;;1.20;99.90;;;;;;2097717;28;20404;-68
2021/12/28 04:39:32;;;;;;;94.30;47.45;;;1.20;99.90;;;;;;2106466;28;20036;-69
2021/12/28 04:40:33;;;;;;;92.72;47.05;;;1.20;99.90;;;;;;2106755;28;20171;-69
2021/12/28 04:41:34;;;;;;;93.75;48.45;;;1.20;99.90;;;;;;2097081;28;20484;-70
2021/12/28 04:42:35;;;;;;;92.32;47.70;;;1.20;99.90;;;;;;2097624;28;20043;-69
2021/12/28 04:43:36;;;;;;;95.63;47.05;;;1.30;99.90;;;;;;2106338;28;20028;-69
2021/12/28 04:44:37;;;;;;;92.47;46.22;;;1.20;99.90;;;;;;2097486;28;20078;-70
2021/12/28 04:45:38;;;;;;;93.05;46.60;;;1.20;99.90;;;;;;2089084;28;20036;-68
2021/12/28 04:46:40;;;;;;;94.13;47.92;;;1.20;99.90;;;;;;2097654;28;20032;-69
2021/12/28 04:47:40;;;;;;;95.60;47.83;;;1.20;99.90;;;;;;2097080;28;20158;-69
2021/12/28 04:48:41;;;;;;;96.18;47.42;;;1.20;99.90;;;;;;2089099;28;20571;-68
2021/12/28 04:49:43;;;;;;;91.13;46.70;;;1.20;99.90;;;;;;2089025;28;20461;-68
2021/12/28 04:50:45;;;;;;;97.00;47.83;;;1.20;99.90;;;;;;2089128;28;20021;-69
2021/12/28 04:51:45;;;;;;;93.88;46.70;;;1.20;99.90;;;;;;2088786;28;20025;-68
2021/12/28 04:52:46;;;;;;;95.40;46.92;;;1.20;99.90;;;;;;2089037;28;20033;-68
2021/12/28 04:53:48;;;;;;;90.18;46.30;;;1.20;99.90;;;;;;2097329;28;20078;-68
2021/12/28 04:54:49;;;;;;;94.60;48.17;;;1.20;99.90;;;;;;2106254;28;20055;-68
2021/12/28 04:55:51;;;;;;;96.80;47.85;;;1.30;99.90;;;;;;2097097;28;20044;-68
2021/12/28 04:56:51;;;;;;;87.43;44.67;;;1.30;99.90;;;;;;2097623;28;20035;-68
2021/12/28 04:57:52;;;;;;;92.65;47.67;;;1.20;99.90;;;;;;2105579;28;20028;-69
2021/12/28 04:58:53;;;;;;;95.82;47.20;;;1.20;99.90;;;;;;2096999;28;20032;-69
2021/12/28 04:59:53;;;;;;;94.28;46.53;;;1.20;99.90;;;;;;2097135;28;20035;-69
2021/12/28 05:00:54;;;;;;;90.93;46.22;;;1.20;99.90;;;;;;2106169;28;20019;-69
2021/12/28 05:01:55;;;;;;;91.03;46.60;;;1.20;99.90;;;;;;2105597;28;20032;-68
2021/12/28 05:02:56;;;;;;;99.40;48.42;;;1.10;99.90;;;;;;2105979;28;20012;-68
2021/12/28 05:03:56;;;;;;;100.25;47.78;;;1.10;99.90;;;;;;2106029;28;20024;-69
2021/12/28 05:04:57;;;;;;;97.30;46.50;;;1.10;99.90;;;;;;2097108;28;20066;-69
2021/12/28 05:05:58;;;;;;;94.28;47.30;;;1.10;99.90;;;;;;2097252;28;20028;-69
2021/12/28 05:06:58;;;;;;;93.82;47.33;;;1.10;99.90;;;;;;2096967;28;20468;-69
2021/12/28 05:07:59;;;;;;;96.82;47.15;;;1.10;99.90;;;;;;2096732;28;20033;-68
2021/12/28 05:09:00;;;;;;;93.25;47.38;;;1.10;99.90;;;;;;2097005;28;20480;-69
2021/12/28 05:10:00;;;;;;;90.30;46.33;;;1.10;99.90;;;;;;2097161;28;20060;-68
2021/12/28 05:11:01;;;;;;;90.00;45.45;;;1.10;99.90;;;;;;2106217;28;20035;-68
2021/12/28 05:12:02;;;;;;;94.70;46.92;;;1.10;99.90;;;;;;2088441;28;20603;-68
2021/12/28 05:13:03;;;;;;;93.45;47.03;;;1.10;99.90;;;;;;2089032;28;20032;-68
2021/12/28 05:14:05;;;;;;;94.82;47.15;;;1.10;99.90;;;;;;2105905;28;20047;-68
2021/12/28 05:15:06;;;;;;;95.32;46.85;;;1.00;99.90;;;;;;2106102;28;20437;-68
2021/12/28 05:16:10;;;;;;;93.18;45.97;;;1.10;99.90;;;;;;2097189;28;20078;-68
2021/12/28 05:17:10;;;;;;;92.68;45.45;;;1.10;99.90;;;;;;2096984;28;20025;-69
2021/12/28 05:18:13;;;;;;;92.10;45.90;;;1.10;99.90;;;;;;2106230;28;20513;-68
2021/12/28 05:19:14;;;;;;;92.97;45.08;;;1.10;99.90;;;;;;2106102;28;20039;-69